Time;durP1;ratioP1;P1;durP2;ratioP2;P2;SDS_P1;SDS_P2;PMS_P1;PMS_P2;Temp;Humidity;BMP_temperature;BMP_pressure;BME280_temperature;BME280_humidity;BME280_pressure;Samples;Min_cycle;Max_cycle;Signal;HPM_P1;HPM_P2
2021/11/24 00:00:47;;;;;;;45.70;22.80;;;;;;;-0.11;100.00;101278.03;5074652;28;20540;-81
2021/11/24 00:03:16;;;;;;;47.45;23.88;;;;;;;-0.17;100.00;101284.16;5074721;28;20048;-81
2021/11/24 00:05:45;;;;;;;44.92;23.40;;;;;;;-0.28;100.00;101280.66;5074116;28;20044;-81
2021/11/24 00:08:14;;;;;;;43.08;23.65;;;;;;;-0.33;100.00;101285.03;5074677;28;20076;-81
2021/11/24 00:10:42;;;;;;;42.97;22.40;;;;;;;-0.40;100.00;101275.41;5074062;28;20094;-83
2021/11/24 00:13:10;;;;;;;40.72;21.38;;;;;;;-0.33;100.00;101290.25;5075059;28;20067;-84
2021/11/24 00:15:38;;;;;;;41.50;23.05;;;;;;;-0.26;100.00;101286.78;5074549;28;20044;-86
2021/11/24 00:18:07;;;;;;;47.92;24.20;;;;;;;-0.26;100.00;101286.78;5074886;28;20052;-84
2021/11/24 00:20:37;;;;;;;49.35;24.90;;;;;;;-0.33;100.00;101287.66;5075660;28;20441;-83
2021/11/24 00:23:05;;;;;;;43.72;24.17;;;;;;;-0.29;100.00;101281.50;5080088;28;20045;-84
2021/11/24 00:25:34;;;;;;;46.42;23.85;;;;;;;-0.35;100.00;101285.03;5075950;28;20046;-84
2021/11/24 00:28:02;;;;;;;51.53;24.65;;;;;;;-0.37;100.00;101285.91;5074976;28;20040;-83
2021/11/24 00:30:31;;;;;;;44.03;23.45;;;;;;;-0.40;100.00;101275.41;5074644;28;20044;-82
2021/11/24 00:32:59;;;;;;;49.40;24.15;;;;;;;-0.40;100.00;101278.00;5076384;28;20037;-81
2021/11/24 00:35:28;;;;;;;46.90;22.77;;;;;;;-0.30;100.00;101278.03;5076789;28;20047;-82
2021/11/24 00:37:58;;;;;;;45.75;23.55;;;;;;;-0.20;100.00;101284.13;5076831;28;20465;-81
2021/11/24 00:40:26;;;;;;;43.10;23.02;;;;;;;-0.23;100.00;101276.28;5076534;28;20048;-81
2021/11/24 00:42:54;;;;;;;45.95;23.90;;;;;;;-0.35;100.00;101278.91;5077453;28;20040;-82
2021/11/24 00:45:23;;;;;;;46.85;24.13;;;;;;;-0.28;100.00;101277.19;5077983;28;20048;-81
2021/11/24 00:47:51;;;;;;;44.03;23.60;;;;;;;-0.19;100.00;101274.53;5076663;28;20478;-81
2021/11/24 00:50:19;;;;;;;45.17;22.65;;;;;;;-0.21;100.00;101271.91;5079195;28;20068;-86
2021/11/24 00:52:51;;;;;;;42.80;22.30;;;;;;;-0.32;100.00;101264.03;5081600;28;20077;-87
2021/11/24 00:55:20;;;;;;;41.50;22.40;;;;;;;-0.39;100.00;101266.66;5083420;28;20086;-80
2021/11/24 00:57:49;;;;;;;42.60;23.02;;;;;;;-0.45;100.00;101266.66;5079773;28;20104;-86
2021/11/24 01:00:18;;;;;;;41.10;21.10;;;;;;;-0.34;100.00;101270.16;5086851;28;20048;-88
2021/11/24 01:02:46;;;;;;;39.50;21.23;;;;;;;-0.11;100.00;101275.41;5081952;28;20047;-81
2021/11/24 01:05:15;;;;;;;37.70;20.20;;;;;;;-0.26;100.00;101273.66;5074747;28;20044;-77
2021/11/24 01:07:44;;;;;;;37.83;20.08;;;;;;;-0.24;100.00;101271.03;5075345;28;20052;-81
2021/11/24 01:10:13;;;;;;;37.10;20.25;;;;;;;-0.08;100.00;101262.31;5075601;28;20040;-79
2021/11/24 01:12:44;;;;;;;40.60;21.70;;;;;;;-0.28;100.00;101264.94;5074254;28;20071;-80
2021/11/24 01:15:13;;;;;;;43.85;21.73;;;;;;;-0.40;100.00;101265.78;5074666;28;20044;-80
2021/11/24 01:17:42;;;;;;;42.65;21.73;;;;;;;-0.41;100.00;101273.66;5073472;28;20440;-79
2021/11/24 01:20:12;;;;;;;43.10;23.17;;;;;;;-0.27;100.00;101264.06;5073499;28;20068;-80
2021/11/24 01:22:41;;;;;;;41.45;21.63;;;;;;;-0.40;100.00;101272.78;5073553;28;20478;-80
2021/11/24 01:25:10;;;;;;;33.42;18.20;;;;;;;-0.39;100.00;101266.66;5074276;28;20041;-79
2021/11/24 01:27:40;;;;;;;38.00;19.58;;;;;;;-0.47;100.00;101258.81;5073172;28;20087;-80
2021/11/24 01:30:12;;;;;;;41.97;21.27;;;;;;;-0.49;100.00;101257.91;5072152;28;20041;-79
2021/11/24 01:32:41;;;;;;;47.80;23.70;;;;;;;-0.53;100.00;101261.41;5073156;28;20131;-83
2021/11/24 01:35:11;;;;;;;45.60;23.08;;;;;;;-0.46;100.00;101259.69;5072844;28;20443;-83
2021/11/24 01:37:40;;;;;;;45.80;23.50;;;;;;;-0.51;100.00;101258.78;5073318;28;20071;-84
2021/11/24 01:40:10;;;;;;;41.42;22.38;;;;;;;-0.61;100.00;101256.16;5073156;28;20114;-81
2021/11/24 01:42:40;;;;;;;42.70;23.35;;;;;;;-0.62;100.00;101256.16;5072732;28;20074;-81
2021/11/24 01:45:15;;;;;;;39.50;19.60;;;;;;;-0.47;100.00;101253.56;5072890;28;20409;-80
2021/11/24 01:47:43;;;;;;;34.50;18.05;;;;;;;-0.04;100.00;101253.56;5072645;28;20087;-78
2021/11/24 01:50:12;;;;;;;26.38;14.52;;;;;;;-0.07;100.00;101246.56;5088667;28;20044;-78
2021/11/24 01:52:41;;;;;;;31.42;16.40;;;;;;;0.09;100.00;101242.16;5072749;28;20102;-78
2021/11/24 01:55:11;;;;;;;32.83;17.58;;;;;;;-0.05;100.00;101252.69;5072581;28;20040;-79
2021/11/24 01:57:41;;;;;;;35.00;19.40;;;;;;;-0.28;100.00;101254.44;5072851;28;20102;-78
2021/11/24 02:00:14;;;;;;;34.38;19.08;;;;;;;-0.39;100.00;101257.03;5072913;28;20044;-79
2021/11/24 02:02:42;;;;;;;39.50;21.02;;;;;;;-0.50;100.00;101248.31;5072627;28;20044;-82
2021/11/24 02:05:11;;;;;;;42.30;21.98;;;;;;;-0.63;100.00;101252.66;5072920;28;20533;-81
2021/11/24 02:07:39;;;;;;;46.67;24.38;;;;;;;-0.60;100.00;101252.66;5072289;28;20116;-81
2021/11/24 02:10:09;;;;;;;47.42;26.02;;;;;;;-0.65;100.00;101253.53;5072574;28;20049;-82
2021/11/24 02:12:37;;;;;;;56.15;27.08;;;;;;;-0.71;100.00;101243.91;5072409;28;20115;-82
2021/11/24 02:15:11;;;;;;;51.20;26.90;;;;;;;-0.81;100.00;101257.88;5072685;28;20106;-81
2021/11/24 02:17:40;;;;;;;48.67;26.23;;;;;;;-0.84;100.00;101254.38;5072236;28;20482;-81
2021/11/24 02:20:13;;;;;;;54.10;27.65;;;;;;;-0.88;100.00;101246.50;5072730;28;20438;-81
2021/11/24 02:22:42;;;;;;;53.20;28.60;;;;;;;-0.89;100.00;101247.38;5072507;28;20393;-80
2021/11/24 02:25:11;;;;;;;53.28;28.63;;;;;;;-0.91;100.00;101248.25;5072772;28;20478;-81
2021/11/24 02:27:39;;;;;;;54.17;28.42;;;;;;;-0.88;100.00;101250.84;5072350;28;20075;-81
2021/11/24 02:30:08;;;;;;;57.97;30.02;;;;;;;-0.84;100.00;101247.38;5072724;28;20040;-81
2021/11/24 02:32:37;;;;;;;66.70;30.88;;;;;;;-0.94;100.00;101236.03;5087966;28;20071;-81
2021/11/24 02:35:06;;;;;;;59.78;29.95;;;;;;;-0.99;100.00;101236.88;5072312;28;20119;-81
2021/11/24 02:37:36;;;;;;;57.88;29.33;;;;;;;-1.01;100.00;101242.09;5072325;28;20067;-78
2021/11/24 02:40:05;;;;;;;58.70;28.92;;;;;;;-1.00;100.00;101240.34;5073057;28;20036;-81
2021/11/24 02:42:33;;;;;;;55.15;28.00;;;;;;;-0.96;100.00;101244.75;5076328;28;20044;-79
2021/11/24 02:45:02;;;;;;;54.95;28.38;;;;;;;-0.98;100.00;101249.09;5076151;28;20474;-80
2021/11/24 02:47:30;;;;;;;55.60;28.13;;;;;;;-0.98;100.00;101252.56;5076200;28;20041;-79
2021/11/24 02:50:01;;;;;;;53.22;29.75;;;;;;;-0.92;100.00;101247.38;5075753;28;20051;-79
2021/11/24 02:52:30;;;;;;;53.67;28.80;;;;;;;-0.90;100.00;101247.38;5075706;28;20050;-79
2021/11/24 02:55:03;;;;;;;53.25;28.25;;;;;;;-0.79;100.00;101239.53;5074180;28;20056;-80
2021/11/24 02:57:33;;;;;;;57.65;29.70;;;;;;;-0.61;100.00;101235.19;5075549;28;20518;-80
2021/11/24 03:00:04;;;;;;;57.72;29.20;;;;;;;-0.63;100.00;101241.31;5075566;28;20512;-80
2021/11/24 03:02:32;;;;;;;59.60;28.90;;;;;;;-0.73;100.00;101234.31;5075979;28;20056;-80
2021/11/24 03:05:02;;;;;;;53.15;28.08;;;;;;;-0.62;100.00;101240.44;5074048;28;20126;-79
2021/11/24 03:07:31;;;;;;;60.75;29.45;;;;;;;-0.91;100.00;101237.75;5075871;28;20397;-80
2021/11/24 03:10:00;;;;;;;61.53;31.88;;;;;;;-0.93;100.00;101232.53;5075632;28;20044;-83
2021/11/24 03:12:28;;;;;;;60.95;30.42;;;;;;;-0.92;100.00;101236.03;5075611;28;20048;-83
2021/11/24 03:14:57;;;;;;;65.70;31.42;;;;;;;-0.87;100.00;101242.13;5074884;28;20041;-83
2021/11/24 03:17:25;;;;;;;57.95;29.58;;;;;;;-0.80;100.00;101236.03;5075652;28;20056;-84
2021/11/24 03:19:57;;;;;;;61.38;29.85;;;;;;;-0.93;100.00;101243.00;5075162;28;20076;-80
2021/11/24 03:22:26;;;;;;;53.33;26.65;;;;;;;-1.14;100.00;101242.06;5075246;28;20049;-80
2021/11/24 03:24:58;;;;;;;48.08;23.30;;;;;;;-1.13;100.00;101242.06;5075239;28;20045;-80
2021/11/24 03:27:29;;;;;;;50.10;24.70;;;;;;;-1.04;100.00;101233.38;5074790;28;20056;-78
2021/11/24 03:30:00;;;;;;;51.10;26.63;;;;;;;-1.12;100.00;101242.94;5075175;28;20052;-81
2021/11/24 03:32:28;;;;;;;60.30;29.13;;;;;;;-1.29;100.00;101243.75;5075843;28;20367;-81
2021/11/24 03:34:57;;;;;;;55.03;28.63;;;;;;;-1.37;100.00;101242.84;5074580;28;20041;-80
2021/11/24 03:37:25;;;;;;;54.97;27.38;;;;;;;-1.29;100.00;101235.03;5074885;28;20448;-83
2021/11/24 03:39:54;;;;;;;52.90;27.85;;;;;;;-1.33;100.00;101244.63;5073763;28;20551;-77
2021/11/24 03:42:22;;;;;;;57.58;27.98;;;;;;;-1.41;100.00;101237.59;5075167;28;20037;-77
2021/11/24 03:44:52;;;;;;;51.17;26.85;;;;;;;-1.36;100.00;101238.47;5074602;28;20098;-82
2021/11/24 03:47:21;;;;;;;50.33;26.08;;;;;;;-1.02;100.00;101226.38;5075202;28;20041;-81
2021/11/24 03:49:49;;;;;;;50.47;26.52;;;;;;;-0.84;100.00;101234.28;5074731;28;20487;-78
2021/11/24 03:52:19;;;;;;;53.45;27.20;;;;;;;-0.88;100.00;101236.00;5074015;28;20094;-79
2021/11/24 03:54:47;;;;;;;54.17;27.30;;;;;;;-1.25;100.00;101229.81;5074574;28;20068;-78
2021/11/24 03:57:16;;;;;;;51.90;26.98;;;;;;;-1.38;100.00;101246.31;5090506;28;20084;-79
2021/11/24 03:59:44;;;;;;;55.83;27.65;;;;;;;-1.43;100.00;101247.19;5074484;28;20059;-79
2021/11/24 04:02:13;;;;;;;48.90;25.95;;;;;;;-1.43;100.00;101244.56;5074685;28;20041;-79
2021/11/24 04:04:43;;;;;;;42.63;22.65;;;;;;;-1.34;100.00;101245.50;5074439;28;20045;-76
2021/11/24 04:07:12;;;;;;;42.65;22.75;;;;;;;-1.39;100.00;101247.19;5074826;28;20045;-78
2021/11/24 04:09:40;;;;;;;43.55;22.48;;;;;;;-1.08;100.00;101239.44;5074532;28;20044;-79
2021/11/24 04:12:09;;;;;;;44.30;23.60;;;;;;;-1.00;100.00;101235.13;5074651;28;20062;-78
2021/11/24 04:14:38;;;;;;;48.28;25.38;;;;;;;-1.25;100.00;101239.41;5074115;28;20048;-78
2021/11/24 04:17:06;;;;;;;48.40;24.17;;;;;;;-1.41;100.00;101248.94;5074024;28;20485;-78
2021/11/24 04:19:36;;;;;;;43.53;23.42;;;;;;;-1.46;100.00;101248.91;5074383;28;20054;-78
2021/11/24 04:22:06;;;;;;;52.83;25.67;;;;;;;-1.48;100.00;101247.16;5073951;28;20045;-78
2021/11/24 04:24:37;;;;;;;49.60;24.23;;;;;;;-1.20;100.00;101233.31;5074422;28;20036;-77
2021/11/24 04:27:05;;;;;;;41.25;21.83;;;;;;;-1.01;100.00;101238.63;5073892;28;20044;-77
2021/11/24 04:29:34;;;;;;;39.15;21.73;;;;;;;-0.79;100.00;101236.91;5074115;28;20040;-77
2021/11/24 04:32:02;;;;;;;46.13;23.83;;;;;;;-0.94;100.00;101245.63;5073796;28;20044;-78
2021/11/24 04:34:31;;;;;;;44.22;22.50;;;;;;;-0.95;100.00;101250.00;5074071;28;20044;-77
2021/11/24 04:37:00;;;;;;;45.95;22.67;;;;;;;-0.92;100.00;101257.84;5073579;28;20098;-77
2021/11/24 04:39:29;;;;;;;43.53;22.70;;;;;;;-1.11;100.00;101248.19;5073609;28;20056;-77
2021/11/24 04:41:57;;;;;;;41.35;22.88;;;;;;;-1.31;100.00;101261.19;5073542;28;20052;-77
2021/11/24 04:44:25;;;;;;;46.70;23.45;;;;;;;-1.23;100.00;101258.63;5073923;28;20041;-77
2021/11/24 04:46:54;;;;;;;45.10;22.63;;;;;;;-1.27;100.00;101249.00;5073460;28;20037;-76
2021/11/24 04:49:22;;;;;;;38.55;21.88;;;;;;;-1.20;100.00;101253.38;5073680;28;20045;-76
2021/11/24 04:51:51;;;;;;;41.40;21.30;;;;;;;-0.97;100.00;101250.84;5073392;28;20551;-79
2021/11/24 04:54:20;;;;;;;39.15;21.05;;;;;;;-1.05;100.00;101252.59;5073541;28;20056;-78
2021/11/24 04:56:49;;;;;;;39.78;20.60;;;;;;;-1.12;100.00;101256.03;5073051;28;20060;-78
2021/11/24 04:59:17;;;;;;;42.25;21.60;;;;;;;-1.19;100.00;101256.00;5073536;28;20486;-79
2021/11/24 05:01:45;;;;;;;36.17;21.45;;;;;;;-1.14;100.00;101257.78;5073275;28;20044;-79
2021/11/24 05:04:13;;;;;;;39.08;21.77;;;;;;;-1.25;100.00;101250.75;5073320;28;20120;-81
2021/11/24 05:06:44;;;;;;;40.45;21.88;;;;;;;-1.28;100.00;101266.44;5073594;28;20074;-79
2021/11/24 05:09:13;;;;;;;43.03;22.15;;;;;;;-1.14;100.00;101263.03;5073353;28;20115;-78
2021/11/24 05:11:42;;;;;;;40.83;22.02;;;;;;;-1.22;100.00;101265.59;5073494;28;20052;-79
2021/11/24 05:14:16;;;;;;;40.85;21.13;;;;;;;-1.17;100.00;101266.47;5073008;28;20051;-78
2021/11/24 05:16:47;;;;;;;45.85;21.15;;;;;;;-1.19;100.00;101256.00;5073351;28;20040;-79
2021/11/24 05:19:20;;;;;;;40.95;21.50;;;;;;;-0.93;100.00;101257.84;5073159;28;20401;-79
2021/11/24 05:21:50;;;;;;;39.38;21.13;;;;;;;-0.99;100.00;101248.22;5073118;28;20064;-77
2021/11/24 05:24:19;;;;;;;42.75;22.10;;;;;;;-1.13;100.00;101254.28;5073111;28;20385;-78
2021/11/24 05:26:52;;;;;;;40.88;21.58;;;;;;;-1.07;100.00;101260.41;5073455;28;20457;-78
2021/11/24 05:29:20;;;;;;;39.53;20.38;;;;;;;-1.25;100.00;101261.25;5073202;28;20040;-78
2021/11/24 05:31:48;;;;;;;39.38;21.90;;;;;;;-1.25;100.00;101261.25;5072909;28;20036;-77
2021/11/24 05:34:17;;;;;;;39.83;22.25;;;;;;;-1.31;100.00;101255.97;5073252;28;20052;-78
2021/11/24 05:36:45;;;;;;;35.67;20.88;;;;;;;-1.26;100.00;101253.34;5073333;28;20051;-77
2021/11/24 05:39:14;;;;;;;40.30;21.52;;;;;;;-1.34;100.00;101255.97;5073227;28;20044;-81
2021/11/24 05:41:42;;;;;;;38.85;20.95;;;;;;;-1.31;100.00;101255.09;5073396;28;20367;-83
2021/11/24 05:44:18;;;;;;;37.42;20.83;;;;;;;-1.24;100.00;101255.13;5072761;28;20047;-83
2021/11/24 05:46:50;;;;;;;37.75;20.65;;;;;;;-1.17;100.00;101253.38;5073074;28;20110;-83
2021/11/24 05:49:19;;;;;;;43.33;21.60;;;;;;;-1.15;100.00;101254.28;5073281;28;20045;-84
2021/11/24 05:51:48;;;;;;;40.08;20.60;;;;;;;-1.19;100.00;101261.25;5072634;28;20087;-78
2021/11/24 05:54:16;;;;;;;42.35;20.75;;;;;;;-1.27;100.00;101270.81;5073104;28;20102;-78
2021/11/24 05:56:45;;;;;;;37.50;20.98;;;;;;;-1.22;100.00;101265.59;5072557;28;20060;-80
2021/11/24 05:59:16;;;;;;;46.28;22.35;;;;;;;-1.21;100.00;101273.47;5072680;28;20036;-76
2021/11/24 06:01:45;;;;;;;41.20;20.80;;;;;;;-1.33;100.00;101278.66;5072877;28;20071;-76
2021/11/24 06:04:14;;;;;;;40.70;21.67;;;;;;;-1.23;100.00;101285.69;5072833;28;20051;-75
2021/11/24 06:06:42;;;;;;;42.20;21.38;;;;;;;-1.31;100.00;101282.13;5071398;28;20417;-75
2021/11/24 06:09:10;;;;;;;40.25;21.83;;;;;;;-1.34;100.00;101282.13;5072517;28;20432;-75
2021/11/24 06:11:38;;;;;;;41.90;21.60;;;;;;;-1.27;100.00;101280.41;5072763;28;20490;-75
2021/11/24 06:14:07;;;;;;;41.17;22.13;;;;;;;-1.30;100.00;101283.88;5072335;28;20102;-74
2021/11/24 06:16:37;;;;;;;40.20;21.63;;;;;;;-1.29;100.00;101282.16;5075214;28;20045;-78
2021/11/24 06:19:05;;;;;;;44.20;22.63;;;;;;;-1.53;100.00;101286.41;5076461;28;20428;-76
2021/11/24 06:21:34;;;;;;;41.83;23.23;;;;;;;-1.38;100.00;101289.94;5076166;28;20056;-72
2021/11/24 06:24:05;;;;;;;50.40;23.08;;;;;;;-1.35;100.00;101290.84;5076193;28;20070;-81
2021/11/24 06:26:33;;;;;;;51.97;24.00;;;;;;;-1.38;100.00;101297.81;5076172;28;20523;-81
2021/11/24 06:29:01;;;;;;;49.28;24.67;;;;;;;-1.42;100.00;101299.53;5076461;28;20041;-81
2021/11/24 06:31:29;;;;;;;47.50;23.00;;;;;;;-1.40;100.00;101289.94;5076513;28;20123;-81
2021/11/24 06:33:59;;;;;;;45.25;24.10;;;;;;;-1.54;100.00;101309.94;5076293;28;20036;-82
2021/11/24 06:36:47;;;;;;;41.75;23.05;;;;;;;-1.39;100.00;101302.16;5076523;28;20041;-77
2021/11/24 06:39:16;;;;;;;42.65;22.98;;;;;;;-1.31;100.00;101295.22;5076428;28;20482;-76
2021/11/24 06:41:44;;;;;;;47.67;23.13;;;;;;;-1.36;100.00;101299.56;5076346;28;20119;-79
2021/11/24 06:44:12;;;;;;;41.80;22.67;;;;;;;-1.34;100.00;101297.84;5075758;28;20048;-73
2021/11/24 06:46:43;;;;;;;40.85;22.33;;;;;;;-1.32;100.00;101298.72;5076060;28;20036;-73
2021/11/24 06:49:14;;;;;;;43.35;23.52;;;;;;;-1.49;100.00;101308.22;5074727;28;20405;-77
2021/11/24 06:51:42;;;;;;;47.58;22.95;;;;;;;-1.53;100.00;101314.31;5075922;28;20048;-77
2021/11/24 06:54:10;;;;;;;44.08;23.15;;;;;;;-1.50;100.00;101311.69;5075475;28;20044;-74
2021/11/24 06:56:44;;;;;;;43.70;23.65;;;;;;;-1.59;100.00;101320.38;5076253;28;20397;-77
2021/11/24 06:59:13;;;;;;;42.13;22.40;;;;;;;-1.44;100.00;101316.97;5075622;28;20040;-81
2021/11/24 07:01:42;;;;;;;48.80;23.73;;;;;;;-1.32;100.00;101309.19;5075789;28;20149;-72
2021/11/24 07:04:12;;;;;;;44.60;22.55;;;;;;;-1.13;100.00;101307.53;5075504;28;20071;-75
2021/11/24 07:06:41;;;;;;;40.80;21.67;;;;;;;-1.31;100.00;101310.94;5075636;28;20141;-76
2021/11/24 07:09:11;;;;;;;41.03;21.50;;;;;;;-1.42;100.00;101315.25;5075298;28;20135;-75
2021/11/24 07:11:40;;;;;;;41.20;20.45;;;;;;;-1.45;100.00;101307.34;5078494;28;20067;-74
2021/11/24 07:14:09;;;;;;;38.28;21.27;;;;;;;-1.43;100.00;101310.88;5075139;28;20047;-74
2021/11/24 07:16:38;;;;;;;41.83;20.73;;;;;;;-1.33;100.00;101315.28;5075355;28;20486;-75
2021/11/24 07:19:07;;;;;;;39.70;21.38;;;;;;;-1.23;100.00;101311.84;5075750;28;20040;-76
2021/11/24 07:21:37;;;;;;;37.72;20.02;;;;;;;-0.92;100.00;101311.97;5074928;28;20048;-76
2021/11/24 07:24:06;;;;;;;40.13;20.27;;;;;;;-0.75;100.00;101302.44;5074810;28;20044;-75
2021/11/24 07:26:34;;;;;;;33.38;19.40;;;;;;;-0.62;100.00;101305.94;5075467;28;20445;-75
2021/11/24 07:29:03;;;;;;;34.05;19.08;;;;;;;-0.49;100.00;101301.59;5075139;28;20056;-75
2021/11/24 07:31:31;;;;;;;35.33;18.58;;;;;;;-0.28;100.00;101301.66;5075238;28;20127;-74
2021/11/24 07:33:59;;;;;;;40.65;19.15;;;;;;;-0.18;100.00;101300.78;5074750;28;20135;-75
2021/11/24 07:36:28;;;;;;;36.83;19.95;;;;;;;-0.21;100.00;101299.88;5075089;28;20042;-76
2021/11/24 07:38:58;;;;;;;35.13;19.42;;;;;;;-0.18;100.00;101298.16;5074956;28;20037;-77
2021/11/24 07:41:26;;;;;;;34.15;17.92;;;;;;;-0.08;100.00;101299.03;5075098;28;20048;-75
2021/11/24 07:43:55;;;;;;;30.88;16.92;;;;;;;-0.13;100.00;101299.00;5075121;28;20045;-76
2021/11/24 07:46:23;;;;;;;30.15;17.35;;;;;;;-0.05;100.00;101297.28;5074554;28;20473;-75
2021/11/24 07:48:57;;;;;;;34.25;18.13;;;;;;;0.07;100.00;101298.13;5074928;28;20041;-76
2021/11/24 07:51:27;;;;;;;33.15;17.38;;;;;;;-0.03;100.00;101298.13;5074826;28;20401;-74
2021/11/24 07:53:57;;;;;;;32.80;17.00;;;;;;;0.01;100.00;101304.28;5074913;28;20048;-75
2021/11/24 07:56:25;;;;;;;28.67;16.35;;;;;;;0.08;100.00;101298.13;5074565;28;20040;-74
2021/11/24 07:58:55;;;;;;;31.25;17.85;;;;;;;0.11;100.00;101295.53;5074671;28;20056;-75
2021/11/24 08:01:23;;;;;;;35.78;17.52;;;;;;;0.15;100.00;101291.13;5074295;28;20041;-75
2021/11/24 08:03:51;;;;;;;30.60;17.92;;;;;;;0.31;100.00;101295.50;5074596;28;20055;-76
2021/11/24 08:06:20;;;;;;;30.27;17.02;;;;;;;0.42;100.00;101298.09;5073941;28;20055;-76
2021/11/24 08:08:48;;;;;;;32.58;18.27;;;;;;;0.41;100.00;101309.47;5074662;28;20040;-75
2021/11/24 08:11:17;;;;;;;31.73;18.75;;;;;;;0.45;100.00;101295.47;5073996;28;20051;-75
2021/11/24 08:13:47;;;;;;;30.67;17.85;;;;;;;0.39;100.00;101300.75;5074366;28;20048;-75
2021/11/24 08:16:15;;;;;;;33.78;17.45;;;;;;;0.34;100.00;101300.72;5072669;28;20049;-76
2021/11/24 08:18:44;;;;;;;32.63;18.38;;;;;;;0.49;100.00;101299.84;5073628;28;20090;-76
2021/11/24 08:21:12;;;;;;;33.22;17.58;;;;;;;0.45;100.00;101291.06;5073734;28;20041;-77
2021/11/24 08:23:40;;;;;;;34.15;16.77;;;;;;;0.60;100.00;101302.44;5073963;28;20044;-75
2021/11/24 08:26:09;;;;;;;31.42;16.50;;;;;;;0.64;100.00;101302.41;5073625;28;20393;-75
2021/11/24 08:28:38;;;;;;;29.65;16.17;;;;;;;0.67;100.00;101306.78;5072745;28;20056;-76
2021/11/24 08:31:07;;;;;;;29.92;16.83;;;;;;;0.79;100.00;101294.50;5073572;28;20383;-77
2021/11/24 08:33:35;;;;;;;35.42;17.27;;;;;;;0.99;100.00;101294.41;5073884;28;20036;-76
2021/11/24 08:36:04;;;;;;;29.67;15.80;;;;;;;0.86;100.00;101297.94;5073578;28;20036;-77
2021/11/24 08:38:33;;;;;;;30.52;15.80;;;;;;;0.90;100.00;101296.19;5073042;28;20047;-76
2021/11/24 08:41:01;;;;;;;27.90;14.95;;;;;;;1.00;100.00;101290.03;5073861;28;20436;-77
2021/11/24 08:43:29;;;;;;;29.42;16.25;;;;;;;1.02;100.00;101297.00;5073909;28;20040;-75
2021/11/24 08:45:59;;;;;;;32.17;16.30;;;;;;;1.13;100.00;101291.72;5073827;28;20037;-76
2021/11/24 08:48:27;;;;;;;29.25;15.85;;;;;;;1.04;100.00;101292.63;5074034;28;20051;-75
2021/11/24 08:50:56;;;;;;;27.92;16.05;;;;;;;1.08;100.00;101293.50;5073442;28;20505;-75
2021/11/24 08:53:31;;;;;;;27.30;15.88;;;;;;;1.14;100.00;101294.31;5073927;28;20043;-76
2021/11/24 08:56:00;;;;;;;27.30;15.07;;;;;;;0.96;100.00;101294.41;5073888;28;20048;-76
2021/11/24 08:58:28;;;;;;;28.23;15.32;;;;;;;0.89;100.00;101299.72;5073857;28;20056;-77
2021/11/24 09:00:56;;;;;;;26.50;15.40;;;;;;;1.04;100.00;101297.00;5073534;28;20064;-76
2021/11/24 09:03:26;;;;;;;29.92;15.35;;;;;;;1.14;100.00;101296.94;5073254;28;20366;-76
2021/11/24 09:05:54;;;;;;;27.08;15.02;;;;;;;1.11;100.00;101289.09;5073395;28;20041;-76
2021/11/24 09:08:22;;;;;;;26.60;14.80;;;;;;;1.08;100.00;101288.25;5073169;28;20196;-76
2021/11/24 09:10:50;;;;;;;27.65;15.02;;;;;;;1.45;100.00;101283.66;5073390;28;20044;-76
2021/11/24 09:13:18;;;;;;;26.15;15.13;;;;;;;1.28;100.00;101286.38;5073198;28;20040;-76
2021/11/24 09:15:46;;;;;;;27.30;15.85;;;;;;;1.35;100.00;101288.09;5073444;28;20397;-76
2021/11/24 09:18:16;;;;;;;27.50;16.17;;;;;;;1.62;100.00;101278.25;5073134;28;20040;-76
2021/11/24 09:20:46;;;;;;;26.88;14.77;;;;;;;1.59;100.00;101284.41;5073367;28;20045;-76
2021/11/24 09:23:17;;;;;;;26.95;14.93;;;;;;;1.70;100.00;101277.31;5073188;28;20087;-77
2021/11/24 09:25:53;;;;;;;26.48;14.68;;;;;;;1.90;100.00;101277.16;5073402;28;20131;-75
2021/11/24 09:28:28;;;;;;;26.40;15.48;;;;;;;1.73;100.00;101266.75;5072999;28;20387;-76
2021/11/24 09:30:58;;;;;;;27.52;15.95;;;;;;;1.63;100.00;101267.72;5073169;28;20144;-76
2021/11/24 09:33:26;;;;;;;29.35;15.70;;;;;;;1.69;100.00;101266.81;5072283;28;20565;-76
2021/11/24 09:35:56;;;;;;;25.83;15.23;;;;;;;1.67;100.00;101266.84;5072644;28;20044;-75
2021/11/24 09:38:25;;;;;;;27.35;15.52;;;;;;;1.66;100.00;101266.84;5072616;28;20044;-75
2021/11/24 09:40:56;;;;;;;28.65;16.08;;;;;;;1.84;100.00;101261.44;5072749;28;20036;-76
2021/11/24 09:43:28;;;;;;;31.63;16.58;;;;;;;1.69;100.00;101253.66;5072437;28;20047;-76
2021/11/24 09:45:59;;;;;;;27.58;15.85;;;;;;;1.66;100.00;101261.59;5072709;28;20044;-76
2021/11/24 09:48:27;;;;;;;27.80;15.10;;;;;;;1.66;100.00;101261.59;5072564;28;20127;-75
2021/11/24 09:50:58;;;;;;;30.00;16.45;;;;;;;1.71;100.00;101260.66;5073924;28;20094;-75
2021/11/24 09:53:28;;;;;;;29.05;15.65;;;;;;;1.64;100.00;101255.44;5076581;28;20049;-76
2021/11/24 09:55:57;;;;;;;29.45;15.52;;;;;;;2.20;100.00;101249.69;5076747;28;20316;-75
2021/11/24 09:58:27;;;;;;;27.63;15.75;;;;;;;2.39;100.00;101250.38;5076100;28;20052;-75
2021/11/24 10:00:57;;;;;;;28.42;16.17;;;;;;;2.18;100.00;101240.94;5076597;28;20068;-76
2021/11/24 10:03:28;;;;;;;26.42;14.88;;;;;;;2.13;100.00;101248.03;5076143;28;20048;-76
2021/11/24 10:05:59;;;;;;;26.27;15.45;;;;;;;2.22;100.00;101249.66;5076908;28;20044;-74
2021/11/24 10:08:32;;;;;;;26.90;15.57;;;;;;;2.14;100.00;101244.50;5076608;28;20048;-75
2021/11/24 10:11:01;;;;;;;27.65;15.88;;;;;;;2.05;100.00;101241.09;5076633;28;20552;-76
2021/11/24 10:13:30;;;;;;;29.30;15.80;;;;;;;2.11;100.00;101238.38;5076561;28;20041;-76
2021/11/24 10:15:58;;;;;;;28.40;16.20;;;;;;;2.11;100.00;101236.63;5076438;28;20051;-75
2021/11/24 10:18:29;;;;;;;29.65;15.95;;;;;;;2.08;100.00;101234.03;5076606;28;20063;-77
2021/11/24 10:21:04;;;;;;;28.90;15.77;;;;;;;2.19;100.00;101226.88;5077012;28;20047;-76
2021/11/24 10:23:35;;;;;;;30.90;16.95;;;;;;;2.47;100.00;101223.97;5076528;28;20044;-74
2021/11/24 10:26:19;;;;;;;28.52;15.43;;;;;;;2.42;100.00;101224.03;5076694;28;20059;-75
2021/11/24 10:28:53;;;;;;;31.48;16.45;;;;;;;2.36;100.00;101223.22;5076693;28;20048;-76
2021/11/24 10:31:33;;;;;;;31.30;17.50;;;;;;;2.64;100.00;101211.47;5076303;28;20486;-75
2021/11/24 10:34:12;;;;;;;30.65;16.48;;;;;;;2.77;100.00;101209.53;5076345;28;20113;-75
2021/11/24 10:37:04;;;;;;;31.10;17.15;;;;;;;3.24;100.00;101205.38;5076406;28;20041;-76
2021/11/24 10:39:37;;;;;;;31.95;18.10;;;;;;;3.21;100.00;101208.94;5076072;28;20051;-76
2021/11/24 10:42:10;;;;;;;31.35;17.63;;;;;;;2.92;100.00;101201.44;5075189;28;20056;-76
2021/11/24 10:44:40;;;;;;;33.30;18.42;;;;;;;2.85;100.00;101194.50;5076121;28;20052;-76
2021/11/24 10:47:08;;;;;;;31.17;17.88;;;;;;;3.13;100.00;101195.84;5075924;28;20040;-76
2021/11/24 10:49:42;;;;;;;34.20;18.48;;;;;;;3.00;100.00;101191.66;5075922;28;20106;-76
2021/11/24 10:52:22;;;;;;;;;;;;;;;3.30;100.00;101195.63;5076651;28;20044;-75
2021/11/24 10:55:03;;;;;;;35.17;17.95;;;;;;;3.31;100.00;101197.34;5076000;28;19970;-75
2021/11/24 10:57:33;;;;;;;33.10;18.85;;;;;;;3.35;100.00;101183.22;5076057;28;20052;-76
2021/11/24 11:00:10;;;;;;;33.67;17.42;;;;;;;3.48;100.00;101180.41;5075799;28;20040;-77
2021/11/24 11:02:40;;;;;;;33.13;17.67;;;;;;;3.74;98.81;101176.41;5075604;28;20040;-75
2021/11/24 11:05:15;;;;;;;34.83;18.80;;;;;;;3.59;99.06;101175.81;5075848;28;20120;-75
2021/11/24 11:07:58;;;;;;;32.25;18.77;;;;;;;3.23;100.00;101170.22;5075053;28;20087;-76
2021/11/24 11:10:28;;;;;;;34.38;17.85;;;;;;;3.24;100.00;101165.81;5075113;28;20456;-76
2021/11/24 11:12:59;;;;;;;27.98;16.02;;;;;;;3.63;98.70;101154.59;5075393;28;20044;-76
2021/11/24 11:15:31;;;;;;;30.98;15.63;;;;;;;3.81;97.44;101156.06;5075167;28;20044;-76